Midnight Wolf — HO7969 — position and weather

sailwx.info

Track history (hours):
 
Tides and Currents Weather Stations Pressure Air Temp Water Temp Dewpoint Dewpoint Depression Visibility Wind Speed Wind Dir Waves Ship Positions

Midnight Wolf

Last reported at 2015-May-28 22:21 UTC. Time now 2015-May-30 22:30 UTC.
Position N 18°25' W 064°36'.

Length 51 m; draft 4 m.

Type: Cargo ship. MMSI: 351880000.

Date/timePositionNaut miles runAvg speedWind from/ knotsBaromVisibWave heightAir tempDewpointWater temp
2015-May-28 22:21N 18°25' W 064°36'810.0
2015-May-28 21:32N 18°18' W 064°41'9 9.6
2015-May-28 20:33N 18°17' W 064°51'16 1.7
2015-May-28 11:07N 18°25' W 064°36'8 8.9
2015-May-28 10:10N 18°18' W 064°41'7 9.0
2015-May-28 09:25N 18°15' W 064°48'8 9.3
2015-May-28 08:33N 18°11' W 064°55'7 0.2
2015-May-26 20:33N 18°18' W 064°53'19 4.6
2015-May-26 16:30N 18°25' W 064°34'1 0.2
2015-May-26 10:33N 18°25' W 064°33'3 0.3
2015-May-26 00:12N 18°25' W 064°36'8 9.5
2015-May-25 23:19N 18°18' W 064°41'8 9.0
2015-May-25 22:27N 18°17' W 064°49'3 0.6
2015-May-25 18:08N 18°17' W 064°52'6 9.8
2015-May-25 17:33N 18°17' W 064°46'9 9.2
2015-May-25 16:33N 18°22' W 064°38'1 0.1
2015-May-25 07:33N 18°22' W 064°38'8 8.4
2015-May-25 06:33N 18°17' W 064°44'9 8.7
2015-May-25 05:33N 18°17' W 064°54'  
2015-May-23 00:32N 18°25' W 064°55'1010.1
2015-May-22 23:33N 18°23' W 064°45'8 1.2
2015-May-22 16:33N 18°25' W 064°36'10 9.2
2015-May-22 15:26N 18°17' W 064°43'9 9.8
2015-May-22 14:33N 18°17' W 064°52'  
2015-May-20 08:32N 18°14' W 064°48'12 9.4
2015-May-20 07:18N 18°21' W 064°38'4 4.1
2015-May-20 06:23N 18°25' W 064°36'8 9.6
2015-May-20 05:32N 18°18' W 064°41'9 9.3
2015-May-20 04:33N 18°17' W 064°50'  
Track history (hours):
 
Tides and Currents Weather Stations Pressure Air Temp Water Temp Dewpoint Dewpoint Depression Visibility Wind Speed Wind Dir Waves Ship Positions

Midnight Wolf

Last reported at 2015-May-28 22:21 UTC. Time now 2015-May-30 22:30 UTC.
Position N 18°25' W 064°36'.

Length 51 m; draft 4 m.

Type: Cargo ship. MMSI: 351880000.

Date/timePositionNaut miles runAvg speedWind from/ knotsBaromVisibWave heightAir tempDewpointWater temp
2015-May-28 22:21N 18°25' W 064°36'810.0
2015-May-28 21:32N 18°18' W 064°41'9 9.6
2015-May-28 20:33N 18°17' W 064°51'16 1.7
2015-May-28 11:07N 18°25' W 064°36'8 8.9
2015-May-28 10:10N 18°18' W 064°41'7 9.0
2015-May-28 09:25N 18°15' W 064°48'8 9.3
2015-May-28 08:33N 18°11' W 064°55'7 0.2
2015-May-26 20:33N 18°18' W 064°53'19 4.6
2015-May-26 16:30N 18°25' W 064°34'1 0.2
2015-May-26 10:33N 18°25' W 064°33'3 0.3
2015-May-26 00:12N 18°25' W 064°36'8 9.5
2015-May-25 23:19N 18°18' W 064°41'8 9.0
2015-May-25 22:27N 18°17' W 064°49'3 0.6
2015-May-25 18:08N 18°17' W 064°52'6 9.8
2015-May-25 17:33N 18°17' W 064°46'9 9.2
2015-May-25 16:33N 18°22' W 064°38'1 0.1
2015-May-25 07:33N 18°22' W 064°38'8 8.4
2015-May-25 06:33N 18°17' W 064°44'9 8.7
2015-May-25 05:33N 18°17' W 064°54'  
2015-May-23 00:32N 18°25' W 064°55'1010.1
2015-May-22 23:33N 18°23' W 064°45'8 1.2
2015-May-22 16:33N 18°25' W 064°36'10 9.2
2015-May-22 15:26N 18°17' W 064°43'9 9.8
2015-May-22 14:33N 18°17' W 064°52'  
2015-May-20 08:32N 18°14' W 064°48'12 9.4
2015-May-20 07:18N 18°21' W 064°38'4 4.1
2015-May-20 06:23N 18°25' W 064°36'8 9.6
2015-May-20 05:32N 18°18' W 064°41'9 9.3
2015-May-20 04:33N 18°17' W 064°50'  

Dump ship's entire track history